createdAt,value
2018-12-27T00:00:36.135Z,0
2018-12-27T00:01:37.841Z,0
2018-12-27T00:02:39.586Z,0
2018-12-27T00:03:41.174Z,0
2018-12-27T00:04:42.619Z,0
2018-12-27T00:05:44.259Z,0
2018-12-27T00:06:45.765Z,0
2018-12-27T00:07:47.485Z,0
2018-12-27T00:08:49.260Z,0
2018-12-27T00:09:50.858Z,0
2018-12-27T00:10:52.560Z,0
2018-12-27T00:11:54.224Z,0
2018-12-27T00:12:55.945Z,0
2018-12-27T00:13:57.403Z,0
2018-12-27T00:14:58.806Z,0
2018-12-27T00:16:00.556Z,0
2018-12-27T00:17:01.946Z,0
2018-12-27T00:18:03.567Z,0
2018-12-27T00:19:05.276Z,0
2018-12-27T00:20:06.909Z,0
2018-12-27T00:21:08.331Z,0
2018-12-27T00:22:09.725Z,0
2018-12-27T00:23:11.117Z,0
2018-12-27T00:24:12.524Z,0
2018-12-27T00:25:13.930Z,0
2018-12-27T00:26:15.371Z,0
2018-12-27T00:27:16.788Z,0
2018-12-27T00:28:18.168Z,0
2018-12-27T00:29:19.604Z,0
2018-12-27T00:30:21.222Z,0
2018-12-27T00:31:22.899Z,0
2018-12-27T00:32:24.302Z,0
2018-12-27T00:33:25.691Z,0
2018-12-27T00:34:27.123Z,0
2018-12-27T00:35:28.551Z,0
2018-12-27T00:36:29.969Z,0
2018-12-27T00:37:31.372Z,0
2018-12-27T00:38:32.768Z,0
2018-12-27T00:39:34.283Z,0
2018-12-27T00:40:36.044Z,0
2018-12-27T00:41:37.469Z,0
2018-12-27T00:42:38.857Z,0
2018-12-27T00:43:40.280Z,0
2018-12-27T00:44:41.696Z,0
2018-12-27T00:45:43.117Z,0
2018-12-27T00:46:44.552Z,0
2018-12-27T00:47:45.988Z,0
2018-12-27T00:48:47.413Z,0
2018-12-27T00:49:48.837Z,0
2018-12-27T00:50:50.243Z,0
2018-12-27T00:51:51.629Z,0
2018-12-27T00:52:53.035Z,0
2018-12-27T00:53:54.431Z,0
2018-12-27T00:54:55.824Z,0
2018-12-27T00:55:57.206Z,0
2018-12-27T00:56:58.622Z,0
2018-12-27T00:58:00.028Z,0
2018-12-27T00:59:01.455Z,0
2018-12-27T01:00:02.849Z,0
2018-12-27T01:01:04.263Z,0
2018-12-27T01:02:05.664Z,0
2018-12-27T01:03:11.103Z,0
2018-12-27T01:04:08.459Z,0
2018-12-27T01:05:09.853Z,0
2018-12-27T01:06:11.260Z,0
2018-12-27T01:07:13.098Z,0
2018-12-27T01:08:14.615Z,0
2018-12-27T01:09:16.059Z,0
2018-12-27T01:10:17.481Z,0
2018-12-27T01:11:18.912Z,0
2018-12-27T01:12:20.383Z,0
2018-12-27T01:13:21.800Z,0
2018-12-27T01:14:23.191Z,0
2018-12-27T01:15:24.590Z,0
2018-12-27T01:16:25.963Z,0
2018-12-27T01:17:27.353Z,0
2018-12-27T01:18:28.709Z,0
2018-12-27T01:19:30.079Z,0
2018-12-27T01:20:31.462Z,0
2018-12-27T01:21:32.876Z,0
2018-12-27T01:22:34.228Z,0
2018-12-27T01:23:35.610Z,0
2018-12-27T01:24:36.979Z,0
2018-12-27T01:25:38.341Z,0
2018-12-27T01:26:39.705Z,0
2018-12-27T01:27:41.067Z,0
2018-12-27T01:28:42.429Z,0
2018-12-27T01:29:43.800Z,0
2018-12-27T01:30:45.165Z,0
2018-12-27T01:31:50.553Z,0
2018-12-27T01:32:47.851Z,0
2018-12-27T01:33:49.215Z,0
2018-12-27T01:34:50.584Z,0
2018-12-27T01:35:51.948Z,0
2018-12-27T01:36:53.325Z,0
2018-12-27T01:37:54.688Z,0
2018-12-27T01:38:56.047Z,0
2018-12-27T01:39:57.412Z,0
2018-12-27T01:40:58.776Z,0
2018-12-27T01:42:00.142Z,0
2018-12-27T01:43:01.503Z,0
2018-12-27T01:44:02.867Z,0
2018-12-27T01:45:04.290Z,0
2018-12-27T01:46:05.653Z,0
2018-12-27T01:47:07.013Z,0
2018-12-27T01:48:08.376Z,0
2018-12-27T01:49:09.741Z,0
2018-12-27T01:50:12.230Z,0
2018-12-27T01:51:12.428Z,0
2018-12-27T01:52:13.784Z,0
2018-12-27T01:53:15.152Z,0
2018-12-27T01:54:16.514Z,0
2018-12-27T01:55:17.878Z,0
2018-12-27T01:56:19.240Z,0
2018-12-27T01:57:20.600Z,0
2018-12-27T01:58:21.960Z,0
2018-12-27T01:59:23.315Z,0
2018-12-27T02:00:24.681Z,0
2018-12-27T02:01:26.044Z,0
2018-12-27T02:02:27.408Z,0
2018-12-27T02:03:28.773Z,0
2018-12-27T02:04:30.136Z,0
2018-12-27T02:05:31.492Z,0
2018-12-27T02:06:32.855Z,0
2018-12-27T02:07:34.214Z,0
2018-12-27T02:08:35.581Z,0
2018-12-27T02:09:36.944Z,0
2018-12-27T02:10:38.310Z,0
2018-12-27T02:11:39.669Z,0
2018-12-27T02:12:41.029Z,0
2018-12-27T02:13:42.389Z,0
2018-12-27T02:14:43.761Z,0
2018-12-27T02:15:45.124Z,0
2018-12-27T02:16:46.487Z,0
2018-12-27T02:17:47.848Z,0
2018-12-27T02:18:49.211Z,0
2018-12-27T02:19:50.575Z,0
2018-12-27T02:20:51.936Z,0
2018-12-27T02:21:53.301Z,0
2018-12-27T02:22:54.663Z,0
2018-12-27T02:23:56.022Z,0
2018-12-27T02:24:57.425Z,0
2018-12-27T02:25:58.784Z,0
2018-12-27T02:27:00.145Z,0
2018-12-27T02:28:01.511Z,0
2018-12-27T02:29:02.873Z,0
2018-12-27T02:30:04.238Z,0
2018-12-27T02:31:05.601Z,0
2018-12-27T02:32:06.964Z,0
2018-12-27T02:33:08.325Z,0
2018-12-27T02:34:09.698Z,0
2018-12-27T02:35:11.136Z,0
2018-12-27T02:36:12.563Z,0
2018-12-27T02:37:13.976Z,0
2018-12-27T02:38:15.334Z,0
2018-12-27T02:39:16.704Z,0
2018-12-27T02:40:18.070Z,0
2018-12-27T02:41:19.431Z,0
2018-12-27T02:42:20.794Z,0
2018-12-27T02:43:22.157Z,0
2018-12-27T02:44:23.518Z,0
2018-12-27T02:45:24.879Z,0
2018-12-27T02:46:26.432Z,0
2018-12-27T02:47:27.920Z,0
2018-12-27T02:48:29.336Z,0
2018-12-27T02:49:30.741Z,0
2018-12-27T02:50:32.133Z,0
2018-12-27T02:51:33.538Z,0
2018-12-27T02:52:34.926Z,0
2018-12-27T02:53:36.360Z,0
2018-12-27T02:54:37.755Z,0
2018-12-27T02:55:39.148Z,0
2018-12-27T02:56:40.577Z,0
2018-12-27T02:57:41.959Z,0
2018-12-27T02:58:43.368Z,0
2018-12-27T02:59:44.880Z,0
2018-12-27T03:00:46.285Z,0
2018-12-27T03:01:47.647Z,0
2018-12-27T03:02:49.030Z,0
2018-12-27T03:03:50.399Z,0
2018-12-27T03:04:51.758Z,0
2018-12-27T03:05:53.115Z,0
2018-12-27T03:06:54.506Z,0
2018-12-27T03:07:55.870Z,0
2018-12-27T03:08:57.245Z,0
2018-12-27T03:09:58.604Z,0
2018-12-27T03:10:59.969Z,0
2018-12-27T03:12:01.337Z,0
2018-12-27T03:13:02.696Z,0
2018-12-27T03:14:04.061Z,0
2018-12-27T03:15:05.437Z,0
2018-12-27T03:16:06.804Z,0
2018-12-27T03:17:08.163Z,0
2018-12-27T03:18:09.528Z,0
2018-12-27T03:19:10.890Z,0
2018-12-27T03:20:12.262Z,0
2018-12-27T03:21:13.627Z,0
2018-12-27T03:22:14.997Z,0
2018-12-27T03:23:16.364Z,0
2018-12-27T03:24:17.727Z,0
2018-12-27T03:25:19.089Z,0
2018-12-27T03:26:20.451Z,0
2018-12-27T03:27:21.817Z,0
2018-12-27T03:28:23.186Z,0
2018-12-27T03:29:24.552Z,0
2018-12-27T03:30:25.910Z,0
2018-12-27T03:31:27.286Z,0
2018-12-27T03:32:28.642Z,0
2018-12-27T03:33:30.007Z,0
2018-12-27T03:34:31.759Z,0
2018-12-27T03:35:33.152Z,0
2018-12-27T03:36:34.543Z,0
2018-12-27T03:37:35.939Z,0
2018-12-27T03:38:37.325Z,0
2018-12-27T03:39:38.755Z,0
2018-12-27T03:40:40.170Z,0
2018-12-27T03:41:41.569Z,0
2018-12-27T03:42:42.984Z,0
2018-12-27T03:43:44.409Z,0
2018-12-27T03:44:45.818Z,0
2018-12-27T03:45:47.214Z,0
2018-12-27T03:46:48.598Z,0
2018-12-27T03:47:50.058Z,0
2018-12-27T03:48:51.608Z,0
2018-12-27T03:49:53.477Z,0
2018-12-27T03:50:55.291Z,0
2018-12-27T03:51:56.737Z,0
2018-12-27T03:52:58.138Z,0
2018-12-27T03:53:59.572Z,0
2018-12-27T03:55:00.974Z,0
2018-12-27T03:56:02.385Z,0
2018-12-27T03:57:03.788Z,0
2018-12-27T03:58:05.204Z,0
2018-12-27T03:59:06.616Z,0
2018-12-27T04:00:08.016Z,0
2018-12-27T04:01:09.443Z,0
2018-12-27T04:02:10.869Z,0
2018-12-27T04:03:12.287Z,0
2018-12-27T04:04:13.694Z,0
2018-12-27T04:05:15.100Z,0
2018-12-27T04:06:16.487Z,0
2018-12-27T04:07:17.901Z,0
2018-12-27T04:08:19.283Z,0
2018-12-27T04:09:21.021Z,0
2018-12-27T04:10:22.812Z,0
2018-12-27T04:11:24.214Z,0
2018-12-27T04:12:25.629Z,0
2018-12-27T04:13:27.504Z,0
2018-12-27T04:14:28.941Z,0
2018-12-27T04:15:30.323Z,0
2018-12-27T04:16:31.766Z,0
2018-12-27T04:17:33.177Z,0
2018-12-27T04:18:34.575Z,0
2018-12-27T04:19:36.219Z,0
2018-12-27T04:20:37.616Z,0
2018-12-27T04:21:39.021Z,0
2018-12-27T04:22:40.453Z,0
2018-12-27T04:23:41.860Z,0
2018-12-27T04:24:43.307Z,0
2018-12-27T04:25:44.679Z,0
2018-12-27T04:26:46.140Z,0
2018-12-27T04:27:47.546Z,0
2018-12-27T04:28:48.974Z,0
2018-12-27T04:29:50.372Z,0
2018-12-27T04:30:51.766Z,0
2018-12-27T04:31:53.152Z,0
2018-12-27T04:32:54.560Z,0
2018-12-27T04:33:55.978Z,0
2018-12-27T04:34:57.392Z,0
2018-12-27T04:35:58.834Z,0
2018-12-27T04:37:00.190Z,0
2018-12-27T04:38:01.601Z,0
2018-12-27T04:39:03.000Z,0
2018-12-27T04:40:04.404Z,0
2018-12-27T04:41:05.749Z,0
2018-12-27T04:42:07.202Z,0
2018-12-27T04:43:08.629Z,0
2018-12-27T04:44:10.001Z,0
2018-12-27T04:45:11.402Z,0
2018-12-27T04:46:12.797Z,0
2018-12-27T04:47:14.192Z,0
2018-12-27T04:48:15.611Z,0
2018-12-27T04:49:17.019Z,0
2018-12-27T04:50:18.434Z,0
2018-12-27T04:51:19.842Z,0
2018-12-27T04:52:21.229Z,0
2018-12-27T04:53:22.627Z,0
2018-12-27T04:54:24.024Z,0
2018-12-27T04:55:25.454Z,0
2018-12-27T04:56:26.849Z,0
2018-12-27T04:57:28.250Z,0
2018-12-27T04:58:29.671Z,0
2018-12-27T04:59:31.083Z,0
2018-12-27T05:00:32.518Z,0
2018-12-27T05:01:33.899Z,0
2018-12-27T05:02:35.300Z,0
2018-12-27T05:03:36.742Z,0
2018-12-27T05:04:38.128Z,0
2018-12-27T05:05:39.541Z,0
2018-12-27T05:06:40.955Z,0
2018-12-27T05:07:42.362Z,0
2018-12-27T05:08:43.764Z,0
2018-12-27T05:09:45.147Z,0
2018-12-27T05:10:46.571Z,0
2018-12-27T05:11:47.975Z,0
2018-12-27T05:12:49.377Z,0
2018-12-27T05:13:50.803Z,0
2018-12-27T05:14:52.195Z,0
2018-12-27T05:15:53.620Z,0
2018-12-27T05:16:55.011Z,0
2018-12-27T05:17:56.375Z,0
2018-12-27T05:18:57.743Z,0
2018-12-27T05:19:59.096Z,0
2018-12-27T05:21:00.461Z,0
2018-12-27T05:22:01.821Z,0
2018-12-27T05:23:03.209Z,0
2018-12-27T05:24:04.549Z,0
2018-12-27T05:25:05.906Z,0
2018-12-27T05:26:07.265Z,0
2018-12-27T05:27:08.633Z,0
2018-12-27T05:28:09.997Z,0
2018-12-27T05:29:11.362Z,0
2018-12-27T05:30:12.719Z,0
2018-12-27T05:31:14.077Z,0
2018-12-27T05:32:15.440Z,0
2018-12-27T05:33:16.798Z,0
2018-12-27T05:34:25.867Z,0
2018-12-27T05:35:19.484Z,0
2018-12-27T05:36:20.851Z,0
2018-12-27T05:37:22.211Z,0
2018-12-27T05:38:23.574Z,0
2018-12-27T05:39:24.923Z,0
2018-12-27T05:40:26.292Z,0
2018-12-27T05:41:27.656Z,0
2018-12-27T05:42:29.009Z,0
2018-12-27T05:43:30.384Z,0
2018-12-27T05:44:31.740Z,0
2018-12-27T05:45:33.104Z,0
2018-12-27T05:46:34.465Z,0
2018-12-27T05:47:35.824Z,0
2018-12-27T05:48:37.183Z,0
2018-12-27T05:49:38.884Z,0
2018-12-27T05:50:39.870Z,0
2018-12-27T05:51:41.235Z,0
2018-12-27T05:52:42.601Z,0
2018-12-27T05:53:43.960Z,0
2018-12-27T05:54:46.685Z,0
2018-12-27T05:55:46.646Z,0
2018-12-27T05:56:48.018Z,0
2018-12-27T05:57:49.368Z,0
2018-12-27T05:58:50.736Z,0
2018-12-27T05:59:52.093Z,0
2018-12-27T06:00:53.453Z,0
2018-12-27T06:01:54.814Z,0
2018-12-27T06:02:56.174Z,0
2018-12-27T06:03:57.535Z,0
2018-12-27T06:04:58.892Z,0
2018-12-27T06:06:00.262Z,0
2018-12-27T06:07:01.636Z,0
2018-12-27T06:08:03.002Z,0
2018-12-27T06:09:04.362Z,0
2018-12-27T06:10:05.720Z,0
2018-12-27T06:11:07.088Z,0
2018-12-27T06:12:08.448Z,0
2018-12-27T06:13:09.812Z,0
2018-12-27T06:14:11.178Z,0
2018-12-27T06:15:12.532Z,0
2018-12-27T06:16:13.896Z,0
2018-12-27T06:17:15.255Z,0
2018-12-27T06:18:16.623Z,0
2018-12-27T06:19:17.984Z,0
2018-12-27T06:20:19.342Z,0
2018-12-27T06:21:20.703Z,0
2018-12-27T06:22:22.064Z,0
2018-12-27T06:23:23.425Z,0
2018-12-27T06:24:24.872Z,0
2018-12-27T06:25:26.491Z,0
2018-12-27T06:26:27.890Z,0
2018-12-27T06:27:29.327Z,0
2018-12-27T06:28:30.709Z,0
2018-12-27T06:29:32.121Z,0
2018-12-27T06:30:33.519Z,0
2018-12-27T06:31:34.936Z,0
2018-12-27T06:32:36.328Z,0
2018-12-27T06:33:37.740Z,0
2018-12-27T06:34:41.472Z,0
2018-12-27T06:35:40.425Z,0
2018-12-27T06:36:41.784Z,0
2018-12-27T06:37:43.143Z,0
2018-12-27T06:38:44.521Z,0
2018-12-27T06:39:45.888Z,0
2018-12-27T06:40:47.249Z,0
2018-12-27T06:41:48.624Z,0
2018-12-27T06:42:50.001Z,0
2018-12-27T06:43:51.399Z,0
2018-12-27T06:44:52.793Z,0
2018-12-27T06:45:54.172Z,0
2018-12-27T06:46:55.579Z,0
2018-12-27T06:47:56.980Z,0
2018-12-27T06:49:00.090Z,0
2018-12-27T06:49:59.755Z,0
2018-12-27T06:51:01.170Z,0
2018-12-27T06:52:02.575Z,0
2018-12-27T06:53:03.987Z,0
2018-12-27T06:54:05.390Z,0
2018-12-27T06:55:06.793Z,4
2018-12-27T06:56:08.184Z,4
2018-12-27T06:57:09.571Z,0
2018-12-27T06:58:10.963Z,4
2018-12-27T06:59:12.365Z,4
2018-12-27T07:00:13.791Z,4
2018-12-27T07:01:15.197Z,4
2018-12-27T07:02:16.602Z,4
2018-12-27T07:03:17.999Z,8
2018-12-27T07:04:19.395Z,8
2018-12-27T07:05:20.780Z,8
2018-12-27T07:06:22.179Z,8
2018-12-27T07:07:23.587Z,12
2018-12-27T07:08:25.020Z,12
2018-12-27T07:09:26.416Z,12
2018-12-27T07:10:28.031Z,16
2018-12-27T07:11:29.430Z,20
2018-12-27T07:12:30.873Z,24
2018-12-27T07:13:32.452Z,24
2018-12-27T07:14:33.983Z,32
2018-12-27T07:15:35.393Z,32
2018-12-27T07:16:36.803Z,40
2018-12-27T07:17:38.184Z,48
2018-12-27T07:18:39.591Z,52
2018-12-27T07:19:41.056Z,56
2018-12-27T07:20:42.453Z,64
2018-12-27T07:21:43.864Z,76
2018-12-27T07:22:45.283Z,84
2018-12-27T07:23:46.674Z,92
2018-12-27T07:24:48.205Z,104
2018-12-27T07:25:49.601Z,116
2018-12-27T07:26:51.007Z,128
2018-12-27T07:27:52.416Z,140
2018-12-27T07:28:53.879Z,156
2018-12-27T07:29:55.281Z,176
2018-12-27T07:30:56.705Z,192
2018-12-27T07:31:58.118Z,212
2018-12-27T07:32:59.559Z,236
2018-12-27T07:34:00.959Z,260
2018-12-27T07:35:02.359Z,288
2018-12-27T07:36:03.782Z,316
2018-12-27T07:37:05.173Z,340
2018-12-27T07:38:06.613Z,368
2018-12-27T07:39:08.022Z,396
2018-12-27T07:40:09.438Z,424
2018-12-27T07:41:10.831Z,456
2018-12-27T07:42:12.220Z,488
2018-12-27T07:43:13.635Z,524
2018-12-27T07:44:15.048Z,556
2018-12-27T07:45:16.454Z,596
2018-12-27T07:46:17.860Z,632
2018-12-27T07:47:19.270Z,676
2018-12-27T07:48:20.706Z,716
2018-12-27T07:49:22.129Z,756
2018-12-27T07:50:23.550Z,800
2018-12-27T07:51:24.943Z,844
2018-12-27T07:52:26.368Z,892
2018-12-27T07:53:27.765Z,944
2018-12-27T07:54:29.180Z,1004
2018-12-27T07:55:30.607Z,1076
2018-12-27T07:56:32.006Z,1152
2018-12-27T07:57:33.423Z,1260
2018-12-27T07:58:34.857Z,1356
2018-12-27T07:59:36.303Z,1416
2018-12-27T08:00:37.743Z,1460
2018-12-27T08:01:39.142Z,1492
2018-12-27T08:02:40.534Z,1540
2018-12-27T08:03:41.960Z,1616
2018-12-27T08:04:43.351Z,1700
2018-12-27T08:05:44.757Z,1804
2018-12-27T08:06:46.137Z,1928
2018-12-27T08:07:47.500Z,1984
2018-12-27T08:08:48.872Z,1960
2018-12-27T08:09:50.308Z,1944
2018-12-27T08:10:51.602Z,1992
2018-12-27T08:11:52.967Z,2020
2018-12-27T08:12:54.336Z,2016
2018-12-27T08:13:55.701Z,2032
2018-12-27T08:14:57.067Z,2068
2018-12-27T08:15:58.435Z,2108
2018-12-27T08:16:59.802Z,2156
2018-12-27T08:18:01.172Z,2192
2018-12-27T08:19:02.536Z,2212
2018-12-27T08:20:03.904Z,2252
2018-12-27T08:21:05.275Z,2368
2018-12-27T08:22:06.643Z,2644
2018-12-27T08:23:08.011Z,2984
2018-12-27T08:24:09.389Z,3324
2018-12-27T08:25:10.743Z,3464
2018-12-27T08:26:12.107Z,3228
2018-12-27T08:27:13.477Z,3112
2018-12-27T08:28:14.844Z,2980
2018-12-27T08:29:16.220Z,2880
2018-12-27T08:30:17.593Z,2808
2018-12-27T08:31:18.959Z,2808
2018-12-27T08:32:20.368Z,2928
2018-12-27T08:33:21.730Z,2976
2018-12-27T08:34:23.099Z,2984
2018-12-27T08:35:24.460Z,2904
2018-12-27T08:36:25.834Z,2928
2018-12-27T08:37:27.200Z,2992
2018-12-27T08:38:28.568Z,2932
2018-12-27T08:39:29.934Z,2856
2018-12-27T08:40:31.300Z,2864
2018-12-27T08:41:32.674Z,2888
2018-12-27T08:42:34.038Z,2924
2018-12-27T08:43:35.399Z,2964
2018-12-27T08:44:36.775Z,3016
2018-12-27T08:45:38.148Z,3076
2018-12-27T08:46:39.513Z,3156
2018-12-27T08:47:40.882Z,3108
2018-12-27T08:48:42.251Z,3120
2018-12-27T08:49:43.714Z,3128
2018-12-27T08:50:45.084Z,3140
2018-12-27T08:51:46.541Z,3168
2018-12-27T08:52:47.939Z,3192
2018-12-27T08:53:49.306Z,3200
2018-12-27T08:54:50.673Z,3204
2018-12-27T08:55:52.102Z,3196
2018-12-27T08:56:53.431Z,3216
2018-12-27T08:57:54.783Z,3228
2018-12-27T08:58:56.152Z,3244
2018-12-27T08:59:57.521Z,3244
2018-12-27T09:00:58.886Z,3244
2018-12-27T09:02:00.248Z,3260
2018-12-27T09:03:01.620Z,3292
2018-12-27T09:04:02.990Z,3336
2018-12-27T09:05:04.365Z,3320
2018-12-27T09:06:05.766Z,3316
2018-12-27T09:07:07.134Z,3332
2018-12-27T09:08:08.550Z,3348
2018-12-27T09:09:09.916Z,3360
2018-12-27T09:10:11.286Z,3372
2018-12-27T09:11:12.655Z,3392
2018-12-27T09:12:14.021Z,3420
2018-12-27T09:13:15.394Z,3420
2018-12-27T09:14:16.760Z,3432
2018-12-27T09:15:18.128Z,3456
2018-12-27T09:16:19.498Z,3484
2018-12-27T09:17:20.864Z,3508
2018-12-27T09:18:22.570Z,3548
2018-12-27T09:19:23.563Z,3596
2018-12-27T09:20:24.931Z,3660
2018-12-27T09:21:26.293Z,3732
2018-12-27T09:22:27.667Z,3812
2018-12-27T09:23:29.037Z,3900
2018-12-27T09:24:30.405Z,3988
2018-12-27T09:25:31.766Z,4100
2018-12-27T09:26:33.140Z,4236
2018-12-27T09:27:34.509Z,4360
2018-12-27T09:28:35.873Z,4524
2018-12-27T09:29:37.242Z,4664
2018-12-27T09:30:38.609Z,4740
2018-12-27T09:31:39.982Z,4752
2018-12-27T09:32:41.348Z,4780
2018-12-27T09:33:42.724Z,4856
2018-12-27T09:34:44.095Z,4868
2018-12-27T09:35:45.461Z,5056
2018-12-27T09:36:46.885Z,5292
2018-12-27T09:37:48.297Z,5344
2018-12-27T09:38:50.012Z,5448
2018-12-27T09:39:51.693Z,5664
2018-12-27T09:40:53.365Z,5900
2018-12-27T09:41:55.090Z,6208
2018-12-27T09:42:56.795Z,6516
2018-12-27T09:43:58.390Z,6676
2018-12-27T09:44:59.780Z,6864
2018-12-27T09:46:01.193Z,6988
2018-12-27T09:47:02.617Z,7328
2018-12-27T09:48:04.047Z,7464
2018-12-27T09:49:05.444Z,7692
2018-12-27T09:50:06.864Z,7656
2018-12-27T09:51:08.278Z,7668
2018-12-27T09:52:09.712Z,7936
2018-12-27T09:53:11.175Z,8220
2018-12-27T09:54:12.559Z,8300
2018-12-27T09:55:13.977Z,8040
2018-12-27T09:56:15.413Z,8260
2018-12-27T09:57:16.839Z,8260
2018-12-27T09:58:18.240Z,8132
2018-12-27T09:59:19.650Z,7932
2018-12-27T10:00:21.097Z,7512
2018-12-27T10:01:22.530Z,7320
2018-12-27T10:02:23.946Z,7304
2018-12-27T10:03:25.369Z,7304
2018-12-27T10:04:26.768Z,7500
2018-12-27T10:05:33.682Z,7568
2018-12-27T10:06:29.699Z,7512
2018-12-27T10:07:31.101Z,7800
2018-12-27T10:08:32.514Z,7792
2018-12-27T10:09:33.975Z,7664
2018-12-27T10:10:35.375Z,7764
2018-12-27T10:11:36.780Z,8076
2018-12-27T10:12:38.220Z,8228
2018-12-27T10:13:39.642Z,8828
2018-12-27T10:14:41.035Z,9280
2018-12-27T10:15:42.457Z,9032
2018-12-27T10:16:43.827Z,8864
2018-12-27T10:17:45.203Z,8736
2018-12-27T10:18:46.777Z,8136
2018-12-27T10:19:48.187Z,8076
2018-12-27T10:20:49.621Z,8488
2018-12-27T10:21:51.037Z,8144
2018-12-27T10:22:52.491Z,7760
2018-12-27T10:23:53.864Z,8056
2018-12-27T10:24:55.255Z,8188
2018-12-27T10:25:56.674Z,8008
2018-12-27T10:26:58.093Z,7892
2018-12-27T10:27:59.700Z,7828
2018-12-27T10:29:01.165Z,7716
2018-12-27T10:30:02.582Z,7792
2018-12-27T10:31:04.063Z,7772
2018-12-27T10:32:05.492Z,7656
2018-12-27T10:33:06.894Z,7520
2018-12-27T10:34:08.319Z,7628
2018-12-27T10:35:09.713Z,7740
2018-12-27T10:36:11.125Z,7808
2018-12-27T10:37:12.611Z,7868
2018-12-27T10:38:14.013Z,7876
2018-12-27T10:39:15.539Z,7908
2018-12-27T10:40:16.948Z,8044
2018-12-27T10:41:18.489Z,8052
2018-12-27T10:42:19.894Z,8004
2018-12-27T10:43:21.309Z,7908
2018-12-27T10:44:22.740Z,8040
2018-12-27T10:45:24.141Z,8188
2018-12-27T10:46:25.612Z,8436
2018-12-27T10:47:27.020Z,8516
2018-12-27T10:48:28.454Z,8448
2018-12-27T10:49:29.886Z,8436
2018-12-27T10:50:31.364Z,8300
2018-12-27T10:51:32.878Z,8124
2018-12-27T10:52:34.351Z,8392
2018-12-27T10:53:35.837Z,8844
2018-12-27T10:54:37.320Z,9332
2018-12-27T10:55:38.861Z,9904
2018-12-27T10:56:40.314Z,9988
2018-12-27T10:57:41.783Z,10632
2018-12-27T10:58:43.309Z,10856
2018-12-27T10:59:45.224Z,10772
2018-12-27T11:00:46.754Z,10404
2018-12-27T11:01:48.224Z,10012
2018-12-27T11:02:49.714Z,9364
2018-12-27T11:03:51.198Z,9980
2018-12-27T11:04:52.709Z,10100
2018-12-27T11:05:54.180Z,10632
2018-12-27T11:06:55.723Z,10100
2018-12-27T11:07:57.259Z,10380
2018-12-27T11:08:59.259Z,10172
2018-12-27T11:10:00.713Z,8904
2018-12-27T11:11:02.177Z,8800
2018-12-27T11:12:03.801Z,8932
2018-12-27T11:13:05.515Z,8828
2018-12-27T11:14:06.964Z,8728
2018-12-27T11:15:08.499Z,8288
2018-12-27T11:16:09.972Z,7964
2018-12-27T11:17:11.411Z,8020
2018-12-27T11:18:12.920Z,7884
2018-12-27T11:19:14.432Z,7760
2018-12-27T11:20:17.338Z,7612
2018-12-27T11:21:19.110Z,7440
2018-12-27T11:22:20.621Z,7316
2018-12-27T11:23:22.154Z,7208
2018-12-27T11:24:23.659Z,7124
2018-12-27T11:25:25.098Z,7044
2018-12-27T11:26:26.623Z,6952
2018-12-27T11:27:28.120Z,6888
2018-12-27T11:28:29.639Z,6880
2018-12-27T11:29:31.103Z,6912
2018-12-27T11:30:32.749Z,6972
2018-12-27T11:31:34.297Z,7060
2018-12-27T11:32:35.781Z,7184
2018-12-27T11:33:37.408Z,7320
2018-12-27T11:34:38.889Z,7460
2018-12-27T11:35:40.351Z,7592
2018-12-27T11:36:41.849Z,7716
2018-12-27T11:37:43.297Z,7816
2018-12-27T11:38:44.856Z,7876
2018-12-27T11:39:46.274Z,7880
2018-12-27T11:40:47.721Z,7880
2018-12-27T11:41:49.166Z,7888
2018-12-27T11:42:50.680Z,7884
2018-12-27T11:43:52.170Z,7864
2018-12-27T11:44:53.594Z,7804
2018-12-27T11:45:55.025Z,7680
2018-12-27T11:46:56.512Z,7496
2018-12-27T11:47:57.971Z,7356
2018-12-27T11:48:59.454Z,7280
2018-12-27T11:50:00.907Z,7028
2018-12-27T11:51:02.373Z,6636
2018-12-27T11:52:03.780Z,6428
2018-12-27T11:53:05.295Z,6188
2018-12-27T11:54:06.765Z,6060
2018-12-27T11:55:08.245Z,5976
2018-12-27T11:56:09.714Z,5920
2018-12-27T11:57:11.071Z,5896
2018-12-27T11:58:12.469Z,5900
2018-12-27T11:59:13.892Z,5904
2018-12-27T12:00:15.334Z,5912
2018-12-27T12:01:16.819Z,5928
2018-12-27T12:02:18.294Z,5956
2018-12-27T12:03:19.724Z,5996
2018-12-27T12:04:21.221Z,6048
2018-12-27T12:05:22.668Z,6124
2018-12-27T12:06:24.147Z,6208
2018-12-27T12:07:25.634Z,6304
2018-12-27T12:08:27.122Z,6380
2018-12-27T12:09:28.553Z,6388
2018-12-27T12:10:29.954Z,6324
2018-12-27T12:11:31.458Z,6208
2018-12-27T12:12:32.969Z,6068
2018-12-27T12:13:34.369Z,5920
2018-12-27T12:14:35.886Z,5788
2018-12-27T12:15:37.375Z,5652
2018-12-27T12:16:38.838Z,5512
2018-12-27T12:17:40.340Z,5384
2018-12-27T12:18:41.732Z,5268
2018-12-27T12:19:43.132Z,5184
2018-12-27T12:20:44.611Z,5096
2018-12-27T12:21:46.068Z,4768
2018-12-27T12:22:47.505Z,4620
2018-12-27T12:23:48.988Z,4500
2018-12-27T12:24:50.408Z,4392
2018-12-27T12:25:52.031Z,4324
2018-12-27T12:26:53.545Z,4288
2018-12-27T12:27:54.999Z,4320
2018-12-27T12:28:56.443Z,4288
2018-12-27T12:29:57.978Z,4264
2018-12-27T12:30:59.404Z,4236
2018-12-27T12:32:00.870Z,4196
2018-12-27T12:33:02.342Z,4136
2018-12-27T12:34:03.842Z,4056
2018-12-27T12:35:05.320Z,3988
2018-12-27T12:36:10.563Z,3940
2018-12-27T12:37:13.812Z,3936
2018-12-27T12:38:09.638Z,3964
2018-12-27T12:39:11.107Z,4020
2018-12-27T12:40:12.594Z,4120
2018-12-27T12:41:14.047Z,4228
2018-12-27T12:42:15.608Z,4312
2018-12-27T12:43:16.867Z,4396
2018-12-27T12:44:18.301Z,4472
2018-12-27T12:45:19.744Z,4500
2018-12-27T12:46:21.218Z,4560
2018-12-27T12:47:22.826Z,4612
2018-12-27T12:48:24.276Z,4736
2018-12-27T12:49:25.703Z,4896
2018-12-27T12:50:27.277Z,5028
2018-12-27T12:51:28.731Z,5144
2018-12-27T12:52:30.238Z,5312
2018-12-27T12:53:32.142Z,5432
2018-12-27T12:54:33.225Z,5584
2018-12-27T12:55:34.716Z,5708
2018-12-27T12:56:36.153Z,5820
2018-12-27T12:57:37.635Z,5976
2018-12-27T12:58:39.113Z,6124
2018-12-27T12:59:40.587Z,6260
2018-12-27T13:00:42.129Z,6316
2018-12-27T13:01:43.491Z,6276
2018-12-27T13:02:44.987Z,6120
2018-12-27T13:03:46.435Z,6000
2018-12-27T13:04:47.900Z,5852
2018-12-27T13:05:49.364Z,5688
2018-12-27T13:06:50.818Z,5568
2018-12-27T13:07:52.302Z,5400
2018-12-27T13:08:53.741Z,5184
2018-12-27T13:09:55.185Z,5128
2018-12-27T13:10:56.608Z,4916
2018-12-27T13:11:58.080Z,4724
2018-12-27T13:12:59.538Z,4612
2018-12-27T13:14:00.937Z,4844
2018-12-27T13:15:02.364Z,4416
2018-12-27T13:16:03.829Z,4520
2018-12-27T13:17:05.236Z,5064
2018-12-27T13:18:06.679Z,4840
2018-12-27T13:19:08.138Z,4392
2018-12-27T13:20:09.631Z,4412
2018-12-27T13:21:11.085Z,4344
2018-12-27T13:22:12.591Z,4440
2018-12-27T13:23:14.133Z,4316
2018-12-27T13:24:15.630Z,4160
2018-12-27T13:25:17.117Z,4104
2018-12-27T13:26:18.576Z,4076
2018-12-27T13:27:20.018Z,4040
2018-12-27T13:28:21.495Z,3972
2018-12-27T13:29:22.950Z,3896
2018-12-27T13:30:24.418Z,3788
2018-12-27T13:31:25.863Z,3672
2018-12-27T13:32:27.332Z,3552
2018-12-27T13:33:28.755Z,3428
2018-12-27T13:34:30.258Z,3312
2018-12-27T13:35:31.678Z,3220
2018-12-27T13:36:33.142Z,3156
2018-12-27T13:37:34.536Z,3100
2018-12-27T13:38:36.011Z,3028
2018-12-27T13:39:37.442Z,2976
2018-12-27T13:40:38.867Z,2932
2018-12-27T13:41:40.316Z,2908
2018-12-27T13:42:41.740Z,2896
2018-12-27T13:43:43.191Z,2892
2018-12-27T13:44:44.660Z,2904
2018-12-27T13:45:46.061Z,2948
2018-12-27T13:46:47.465Z,3008
2018-12-27T13:47:48.871Z,3084
2018-12-27T13:48:50.295Z,3164
2018-12-27T13:49:51.689Z,3232
2018-12-27T13:50:53.105Z,3292
2018-12-27T13:51:54.536Z,3320
2018-12-27T13:52:55.911Z,3352
2018-12-27T13:53:57.302Z,3368
2018-12-27T13:54:58.671Z,3376
2018-12-27T13:56:00.060Z,3372
2018-12-27T13:57:01.449Z,3356
2018-12-27T13:58:02.843Z,3328
2018-12-27T13:59:04.222Z,3280
2018-12-27T14:00:05.626Z,3216
2018-12-27T14:01:07.042Z,3136
2018-12-27T14:02:08.426Z,3052
2018-12-27T14:03:09.836Z,2976
2018-12-27T14:04:11.195Z,2904
2018-12-27T14:05:12.602Z,2844
2018-12-27T14:06:13.996Z,2792
2018-12-27T14:07:15.382Z,2752
2018-12-27T14:08:16.786Z,2704
2018-12-27T14:09:18.162Z,2660
2018-12-27T14:10:19.531Z,2616
2018-12-27T14:11:20.923Z,2576
2018-12-27T14:12:22.314Z,2532
2018-12-27T14:13:23.694Z,2480
2018-12-27T14:14:25.078Z,2424
2018-12-27T14:15:26.467Z,2356
2018-12-27T14:16:27.874Z,2284
2018-12-27T14:17:29.359Z,2212
2018-12-27T14:18:30.733Z,2124
2018-12-27T14:19:32.136Z,2032
2018-12-27T14:20:33.536Z,1936
2018-12-27T14:21:34.945Z,1848